createdAt,value
2023-03-04T00:03:50.466Z,7.28
2023-03-04T00:08:54.590Z,8.02
2023-03-04T00:13:57.855Z,9.07
2023-03-04T00:19:00.606Z,8.45
2023-03-04T00:24:04.782Z,6.30
2023-03-04T00:29:07.894Z,9.23
2023-03-04T00:34:10.630Z,7.03
2023-03-04T00:39:16.470Z,9.40
2023-03-04T00:44:19.250Z,9.27
2023-03-04T00:49:22.293Z,6.18
2023-03-04T00:54:27.233Z,10.55
2023-03-04T00:59:30.393Z,8.05
2023-03-04T01:04:33.230Z,9.00
2023-03-04T01:09:37.443Z,5.05
2023-03-04T01:14:40.240Z,5.97
2023-03-04T01:19:42.994Z,6.40
2023-03-04T01:24:47.229Z,7.32
2023-03-04T01:29:49.940Z,8.30
2023-03-04T01:34:52.724Z,8.32
2023-03-04T01:39:56.835Z,9.30
2023-03-04T01:44:59.706Z,8.90
2023-03-04T01:50:06.191Z,11.95
2023-03-04T01:55:16.323Z,5.82
2023-03-04T02:00:30.761Z,10.60
2023-03-04T02:05:33.726Z,10.02
2023-03-04T02:10:38.778Z,7.90
2023-03-04T02:15:42.325Z,13.35
2023-03-04T02:20:57.415Z,7.95
2023-03-04T02:26:26.066Z,8.32
2023-03-04T02:31:34.195Z,11.05
2023-03-04T02:36:37.736Z,5.83
2023-03-04T02:41:44.169Z,9.05
2023-03-04T02:46:49.105Z,10.40
2023-03-04T02:51:54.027Z,6.45
2023-03-04T02:57:00.786Z,7.75
2023-03-04T03:02:05.214Z,8.57
2023-03-04T03:07:09.773Z,12.63
2023-03-04T03:12:13.985Z,7.18
2023-03-04T03:17:16.849Z,8.35
2023-03-04T03:22:20.561Z,12.48
2023-03-04T03:27:25.280Z,10.70
2023-03-04T03:32:28.731Z,12.20
2023-03-04T03:37:31.692Z,6.93
2023-03-04T03:42:35.788Z,14.32
2023-03-04T03:47:38.524Z,8.10
2023-03-04T03:52:41.266Z,11.95
2023-03-04T03:57:45.379Z,9.50
2023-03-04T04:02:48.188Z,11.73
2023-03-04T04:07:53.701Z,12.48
2023-03-04T04:12:58.121Z,9.20
2023-03-04T04:18:00.946Z,13.30
2023-03-04T04:23:04.422Z,11.10
2023-03-04T04:28:08.519Z,9.50
2023-03-04T04:33:11.897Z,4.85
2023-03-04T04:38:14.708Z,9.70
2023-03-04T04:43:18.834Z,7.75
2023-03-04T04:48:21.587Z,7.30
2023-03-04T04:53:24.410Z,5.53
2023-03-04T04:58:28.584Z,12.00
2023-03-04T05:03:31.410Z,10.02
2023-03-04T05:08:34.677Z,6.18
2023-03-04T05:13:38.839Z,5.63
2023-03-04T05:18:41.610Z,11.20
2023-03-04T05:23:45.617Z,10.95
2023-03-04T05:28:49.800Z,10.27
2023-03-04T05:33:53.040Z,7.60
2023-03-04T05:38:55.835Z,10.82
2023-03-04T05:43:59.993Z,17.42
2023-03-04T05:49:02.714Z,12.95
2023-03-04T05:54:05.565Z,15.95
2023-03-04T05:59:09.661Z,15.70
2023-03-04T06:04:12.529Z,14.02
2023-03-04T06:09:15.352Z,18.20
2023-03-04T06:14:19.857Z,14.95
2023-03-04T06:19:22.792Z,14.88
2023-03-04T06:24:25.544Z,18.85
2023-03-04T06:29:30.068Z,18.20
2023-03-04T06:34:33.859Z,19.48
2023-03-04T06:39:36.630Z,19.35
2023-03-04T06:44:40.822Z,24.02
2023-03-04T06:49:43.583Z,19.52
2023-03-04T06:54:46.397Z,13.73
2023-03-04T06:59:50.570Z,15.93
2023-03-04T07:04:53.553Z,11.15
2023-03-04T07:09:56.317Z,11.48
2023-03-04T07:15:00.428Z,13.18
2023-03-04T07:20:03.357Z,10.18
2023-03-04T07:25:07.292Z,14.95
2023-03-04T07:30:13.083Z,10.98
2023-03-04T07:35:16.167Z,16.13
2023-03-04T07:40:19.375Z,9.65
2023-03-04T07:45:24.733Z,15.48
2023-03-04T07:50:27.479Z,14.15
2023-03-04T07:55:31.558Z,12.07
2023-03-04T08:00:35.908Z,13.27
2023-03-04T08:05:40.301Z,13.00
2023-03-04T08:10:43.555Z,14.45
2023-03-04T08:15:47.710Z,15.10
2023-03-04T08:20:50.601Z,19.60
2023-03-04T08:25:53.344Z,23.13
2023-03-04T08:30:57.563Z,19.35
2023-03-04T08:36:00.899Z,21.42
2023-03-04T08:41:04.358Z,12.93
2023-03-04T08:46:08.939Z,15.88
2023-03-04T08:51:14.511Z,20.20
2023-03-04T08:56:17.299Z,17.15
2023-03-04T09:01:21.494Z,12.52
2023-03-04T09:06:24.380Z,15.73
2023-03-04T09:11:27.126Z,16.70
2023-03-04T09:16:31.367Z,19.63
2023-03-04T09:21:34.151Z,21.27
2023-03-04T09:26:37.046Z,17.38
2023-03-04T09:31:41.248Z,22.33
2023-03-04T09:36:44.317Z,20.40
2023-03-04T09:41:49.736Z,19.80
2023-03-04T09:46:55.674Z,22.73
2023-03-04T09:52:04.287Z,16.02
2023-03-04T09:57:24.790Z,13.52
2023-03-04T10:02:38.399Z,16.88
2023-03-04T10:07:44.481Z,16.92
2023-03-04T10:12:49.887Z,15.73
2023-03-04T10:18:00.860Z,22.75
2023-03-04T10:23:11.817Z,13.32
2023-03-04T10:28:18.757Z,18.55
2023-03-04T10:33:26.550Z,15.90
2023-03-04T10:38:33.539Z,14.23
2023-03-04T10:43:36.488Z,20.63
2023-03-04T10:48:42.400Z,22.58
2023-03-04T10:53:45.607Z,19.60
2023-03-04T10:58:48.386Z,16.50
2023-03-04T11:03:54.751Z,11.65
2023-03-04T11:08:59.234Z,11.93
2023-03-04T11:14:05.797Z,14.55
2023-03-04T11:19:17.447Z,15.05
2023-03-04T11:24:29.055Z,16.38
2023-03-04T11:29:38.867Z,21.90
2023-03-04T11:34:47.912Z,14.63
2023-03-04T11:39:55.870Z,12.25
2023-03-04T11:44:58.934Z,16.92
2023-03-04T11:50:16.345Z,15.57
2023-03-04T11:55:35.042Z,17.48
2023-03-04T12:00:44.534Z,17.20
2023-03-04T12:05:59.236Z,28.52
2023-03-04T12:11:06.691Z,19.85
2023-03-04T12:16:24.130Z,17.33
2023-03-04T12:21:42.596Z,15.32
2023-03-04T12:26:52.033Z,14.32
2023-03-04T12:32:05.242Z,20.05
2023-03-04T12:37:33.427Z,12.00
2023-03-04T12:42:47.059Z,16.60
2023-03-04T12:47:57.538Z,13.50
2023-03-04T12:53:13.864Z,15.68
2023-03-04T12:58:19.304Z,22.45
2023-03-04T13:03:33.701Z,15.60
2023-03-04T13:08:51.163Z,15.82
2023-03-04T13:14:03.277Z,16.52
2023-03-04T13:19:50.913Z,13.82
2023-03-04T13:24:54.840Z,19.05
2023-03-04T13:29:58.063Z,21.23
2023-03-04T13:35:02.179Z,14.90
2023-03-04T13:40:36.994Z,12.38
2023-03-04T13:45:40.112Z,12.18
2023-03-04T13:50:47.635Z,10.45
2023-03-04T13:56:11.252Z,14.20
2023-03-04T14:01:30.343Z,11.20
2023-03-04T14:06:34.389Z,13.05
2023-03-04T14:11:42.648Z,12.65
2023-03-04T14:16:50.386Z,12.43
2023-03-04T14:21:55.074Z,13.53
2023-03-04T14:27:15.726Z,12.32
2023-03-04T14:32:18.530Z,8.50
2023-03-04T14:37:25.671Z,11.40
2023-03-04T14:42:42.178Z,14.85
2023-03-04T14:47:47.675Z,8.25
2023-03-04T14:53:05.275Z,11.07
2023-03-04T14:58:10.389Z,11.75
2023-03-04T15:03:21.938Z,9.80
2023-03-04T15:08:29.605Z,13.05
2023-03-04T15:13:39.421Z,16.90
2023-03-04T15:18:55.691Z,10.00
2023-03-04T15:24:00.049Z,10.07
2023-03-04T15:29:05.211Z,15.13
2023-03-04T15:34:14.101Z,11.20
2023-03-04T15:39:21.585Z,14.50
2023-03-04T15:44:24.356Z,10.57
2023-03-04T15:49:27.554Z,10.95
2023-03-04T15:54:31.814Z,12.02
2023-03-04T15:59:34.535Z,14.48
2023-03-04T16:04:38.869Z,9.98
2023-03-04T16:09:43.052Z,10.07
2023-03-04T16:14:46.988Z,8.25
2023-03-04T16:19:49.862Z,12.55
2023-03-04T16:24:55.362Z,11.35
2023-03-04T16:29:58.231Z,15.60
2023-03-04T16:35:01.566Z,10.65
2023-03-04T16:40:07.641Z,9.05
2023-03-04T16:45:16.101Z,8.95
2023-03-04T16:55:26.259Z,14.48
2023-03-04T17:00:30.039Z,8.82
2023-03-04T17:05:33.828Z,8.27
2023-03-04T17:10:38.018Z,10.95
2023-03-04T17:15:42.703Z,7.88
2023-03-04T17:20:45.468Z,9.52
2023-03-04T17:25:56.272Z,13.23
2023-03-04T17:30:59.071Z,8.85
2023-03-04T17:36:01.849Z,10.77
2023-03-04T17:41:06.652Z,12.45
2023-03-04T17:46:13.241Z,14.45
2023-03-04T17:51:16.686Z,9.23
2023-03-04T17:56:20.824Z,8.32
2023-03-04T18:01:23.902Z,11.75
2023-03-04T18:06:26.862Z,9.90
2023-03-04T18:11:31.315Z,9.15
2023-03-04T18:16:35.181Z,9.90
2023-03-04T18:21:38.139Z,12.05
2023-03-04T18:26:42.338Z,8.88
2023-03-04T18:31:45.399Z,9.57
2023-03-04T18:36:48.616Z,7.97
2023-03-04T18:41:52.671Z,11.75
2023-03-04T18:46:57.747Z,8.35
2023-03-04T18:52:00.907Z,12.30
2023-03-04T18:57:10.382Z,7.82
2023-03-04T19:02:19.982Z,7.80
2023-03-04T19:07:23.761Z,11.52
2023-03-04T19:12:27.916Z,11.35
2023-03-04T19:17:32.639Z,11.45
2023-03-04T19:22:35.869Z,11.38
2023-03-04T19:27:40.055Z,8.05
2023-03-04T19:32:43.388Z,11.23
2023-03-04T19:37:46.261Z,9.70
2023-03-04T19:42:50.431Z,7.75
2023-03-04T19:47:53.225Z,8.57
2023-03-04T19:52:56.220Z,8.18
2023-03-04T19:58:00.371Z,9.25
2023-03-04T20:03:04.956Z,7.80
2023-03-04T20:08:07.725Z,8.52
2023-03-04T20:13:11.805Z,6.93
2023-03-04T20:18:14.590Z,9.60
2023-03-04T20:23:20.252Z,8.90
2023-03-04T20:28:24.920Z,9.93
2023-03-04T20:33:27.677Z,7.70
2023-03-04T20:38:30.448Z,8.68
2023-03-04T20:43:34.511Z,6.57
2023-03-04T20:48:37.335Z,9.25
2023-03-04T20:53:40.548Z,7.88
2023-03-04T20:58:46.241Z,8.77
2023-03-04T21:03:49.716Z,8.98
2023-03-04T21:08:52.693Z,7.32
2023-03-04T21:13:57.757Z,10.05
2023-03-04T21:19:00.744Z,8.90
2023-03-04T21:24:03.790Z,7.55
2023-03-04T21:29:07.973Z,12.52
2023-03-04T21:34:16.667Z,10.82
2023-03-04T21:39:21.722Z,10.30
2023-03-04T21:44:38.554Z,7.25
2023-03-04T21:49:50.806Z,11.95
2023-03-04T21:54:55.800Z,9.50
2023-03-04T22:00:00.279Z,7.70
2023-03-04T22:05:03.047Z,9.30
2023-03-04T22:10:07.202Z,5.65
2023-03-04T22:15:12.355Z,7.97
2023-03-04T22:20:34.125Z,7.25
2023-03-04T22:25:38.677Z,7.93
2023-03-04T22:30:42.790Z,9.18
2023-03-04T22:35:45.583Z,6.50
2023-03-04T22:40:50.045Z,9.23
2023-03-04T22:45:54.279Z,8.93
2023-03-04T22:50:57.009Z,8.85
2023-03-04T22:56:00.323Z,9.35
2023-03-04T23:01:05.467Z,7.00
2023-03-04T23:06:10.272Z,7.00
2023-03-04T23:11:14.979Z,5.32
2023-03-04T23:16:20.126Z,7.20
2023-03-04T23:21:24.778Z,7.45
2023-03-04T23:26:29.353Z,10.02
2023-03-04T23:31:34.661Z,7.95
2023-03-04T23:36:38.059Z,5.45
2023-03-04T23:41:40.923Z,7.38
2023-03-04T23:46:44.994Z,6.70
2023-03-04T23:51:47.785Z,6.90
2023-03-04T23:56:50.740Z,4.90
